Nearby METAR Reports

 

KHOB - Hobbs, New Mexico, USA
Distance from station: S 40mi, 65km
Updated: Sun, 26-May-2019 11:55pm MDT
Overcast
Overcast
 Wind from S
Wind: S 10 mph , 17 km/h, Gust: 18 mph , 30 km/h
Temperature: 70°F , 21°C
Dew Point: 61°F , 16°C
Humidity: 73%
Barometer: 29.93 inHg , 1013.5 hPa
Clouds: Overcast
Visibility: 10 miles , 16 km
Cloud details: Few Clouds 4900 ft
Overcast 6000 ft
2019/05/27 05:55 KHOB 270555Z AUTO 19009G16KT 10SM FEW049 OVC060 21/16 A2993 RMK AO2
KGNC - Seminole, Texas, USA
Distance from station: SE 55mi, 89km
Updated: Sun, 26-May-2019 11:55pm MDT
Clear
Clear
 Wind from SSW
Wind: SSW 10 mph , 17 km/h, Gust: 17 mph , 28 km/h
Temperature: 72°F , 22°C
Dew Point: 61°F , 16°C
Humidity: 69%
Barometer: 29.94 inHg , 1013.9 hPa
Clouds: Clear
Visibility: 10 miles , 16 km
2019/05/27 05:55 KGNC 270555Z AUTO 21009G15KT 10SM CLR 22/16 A2994 RMK AO2 T02150164 10265 20215 402650190
 
KROW - Roswell, New Mexico, USA
Distance from station: W 67mi, 108km
Updated: Sun, 26-May-2019 11:51pm MDT
Clear
Clear
 Wind from E
Wind: E 6 mph , 9 km/h
Temperature: 73°F , 23°C
Dew Point: 16°F , -9°C
Humidity: 11%
Barometer: 29.86 inHg , 1011.2 hPa
Clouds: Clear
Visibility: 10 miles , 16 km
2019/05/27 05:51 KROW 270551Z AUTO 09005KT 10SM CLR 23/M09 A2986 RMK AO2 SLP044 T02331089 10328 20233 51018
KATS - Artesia, New Mexico, USA
Distance from station: WSW 71mi, 114km
Updated: Sun, 26-May-2019 11:55pm MDT
Clear
Clear
 Wind from S
Wind: S 10 mph , 17 km/h
Temperature: 70°F , 21°C
Dew Point: 59°F , 15°C
Humidity: 69%
Barometer: 29.87 inHg , 1011.5 hPa
Clouds: Clear
Visibility: 10 miles , 16 km
2019/05/27 05:55 KATS 270555Z AUTO 17009KT 10SM CLR 21/15 A2987 RMK AO2
 
KCVS - Cannon AFB,Clovis, New Mexico, USA
Distance from station: 0 78mi, 125km
Updated: Sun, 26-May-2019 10:58pm MDT
Clear
Clear
 Wind from S
Wind: S 9 mph , 15 km/h
Temperature: 66°F , 19°C
Dew Point: 64°F , 18°C
Humidity: 94%
Barometer: 29.93 inHg , 1013.5 hPa
Clouds: Clear
Visibility: 10 miles , 16 km
2019/05/27 04:58 KCVS 270458Z AUTO 18008KT 10SM CLR 19/18 A2993 RMK AO2 SLP087 T01900182 $
KE11 - Andrews, Texas, USA
Distance from station: SE 78mi, 126km
Updated: Sun, 26-May-2019 11:35pm MDT
Clear
Clear
 Wind from S
Wind: S 18 mph , 30 km/h, Gust: 28 mph , 44 km/h
Temperature: 73°F , 23°C
Dew Point: 63°F , 17°C
Humidity: 69%
Barometer: 29.88 inHg , 1011.9 hPa
Clouds: Clear
Visibility: 10 miles , 16 km
2019/05/27 05:35 KE11 270535Z AUTO 19016G24KT 10SM CLR 23/17 A2988 RMK AO2 T02250171
 
KCNM - Carlsbad, New Mexico, USA
Distance from station: SW 82mi, 132km
Updated: Sun, 26-May-2019 11:53pm MDT
Clear
Clear
 Wind from SE
Wind: SE 7 mph , 11 km/h
Temperature: 72°F , 22°C
Dew Point: 61°F , 16°C
Humidity: 69%
Barometer: 29.86 inHg , 1011.2 hPa
Clouds: Clear
Visibility: 10 miles , 16 km
2019/05/27 05:53 KCNM 270553Z AUTO 14006KT 10SM CLR 22/16 A2986 RMK AO2 SLP056 T02220156 10311 20222 51008
KCVN - Clovis Muni, New Mexico, USA
Distance from station: N 83mi, 133km
Updated: Sun, 26-May-2019 11:56pm MDT
Clear
Clear
 Wind from SSW
Wind: SSW 9 mph , 15 km/h
Temperature: 64°F , 18°C
Dew Point: 63°F , 17°C
Humidity: 94%
Barometer: 29.92 inHg , 1013.2 hPa
Clouds: Clear
Visibility: 8 miles , 13 km
2019/05/27 05:56 KCVN 270556Z AUTO 20008KT 8SM CLR 18/17 A2992 RMK AO2 SLP093 60011 T01830172 10239 20144 50003
 
KLBB - Lubbock, Texas, USA
Distance from station: ENE 92mi, 149km
Updated: Sun, 26-May-2019 11:53pm MDT
Few Clouds
Few Clouds
 Wind from WSW
Wind: WSW 13 mph , 20 km/h
Temperature: 70°F , 21°C
Dew Point: 63°F , 17°C
Humidity: 78%
Barometer: 29.90 inHg , 1012.5 hPa
Clouds: Few Clouds
Visibility: 10 miles , 16 km
Cloud details: Few Clouds 2200 ft
Few Clouds 20000 ft
2019/05/27 05:53 KLBB 270553Z 24011KT 10SM FEW022 FEW200 21/17 A2990 RMK AO2 PRESRR SLP081 OCNL LTGICCC DSNT N CB DSNT N MOV NE T02060172 10250 20206 402560178 53004 $
KINK - Wink, Texas, USA
Distance from station: S 101mi, 163km
Updated: Sun, 26-May-2019 11:53pm MDT
Clear
Clear
 Wind from SSE
Wind: SSE 8 mph , 13 km/h
Temperature: 72°F , 22°C
Dew Point: 63°F , 17°C
Humidity: 73%
Barometer: 29.86 inHg , 1011.2 hPa
Clouds: Clear
Visibility: 10 miles , 16 km
2019/05/27 05:53 KINK 270553Z AUTO 15007KT 10SM CLR 22/17 A2986 RMK AO2 SLP069 T02170167 10294 20211 403000211 53015
 
KMAF - Midland, Texas, USA
Distance from station: SE 111mi, 179km
Updated: Sun, 26-May-2019 11:53pm MDT
Clear
Clear
 Wind from S
Wind: S 17 mph , 28 km/h, Gust: 29 mph , 46 km/h
Temperature: 75°F , 24°C
Dew Point: 64°F , 18°C
Humidity: 69%
Barometer: 29.86 inHg , 1011.2 hPa
Clouds: Clear
Visibility: 10 miles , 16 km
2019/05/27 05:53 KMAF 270553Z AUTO 18015G25KT 10SM CLR 24/18 A2986 RMK AO2 PK WND 18028/0500 SLP066 T02390183 10278 20239 402780211 50001 $
KSRR - Sierra B/Ruidoso, New Mexico, USA
Distance from station: W 127mi, 204km
Updated: Sun, 26-May-2019 11:55pm MDT
Clear
Clear
 Wind from SW
Wind: SW 12 mph , 19 km/h
Temperature: 59°F , 15°C
Dew Point: 9°F , -13°C
Humidity: 13%
Barometer: 30.07 inHg , 1018.3 hPa
Clouds: Clear
Visibility: 10 miles , 16 km
2019/05/27 05:55 KSRR 270555Z AUTO 22010KT 10SM CLR 15/M13 A3007 RMK AO2
 
KGDP - Guadalupe Pass, Texas, USA
Distance from station: SW 130mi, 209km
Updated: Sun, 26-May-2019 11:51pm MDT
Clear
Clear
 Wind from SW
Wind: SW 15 mph , 24 km/h, Gust: 20 mph , 31 km/h
Temperature: 72°F , 22°C
Dew Point: 16°F , -9°C
Humidity: 12%
Barometer: 30.01 inHg , 1016.3 hPa
Clouds: Clear
Visibility: 8 miles , 13 km
2019/05/27 05:51 KGDP 270551Z AUTO 23013G17KT 8SM CLR 22/M09 A3001 RMK AO2 SLP073 T02171094 $